sensor_id;sensor_type;location;lat;lon;timestamp;pressure;altitude;pressure_sealevel;temperature;humidity
60244;BME280;46106;51.468;5.814;2023-02-28T00:00:49;102744.94;;;-0.37;100.00
60244;BME280;46106;51.468;5.814;2023-02-28T00:03:15;102758.38;;;-0.31;100.00
60244;BME280;46106;51.468;5.814;2023-02-28T00:05:41;102740.47;;;-0.44;100.00
60244;BME280;46106;51.468;5.814;2023-02-28T00:08:07;102748.53;;;-0.44;100.00
60244;BME280;46106;51.468;5.814;2023-02-28T00:10:33;102747.63;;;-0.46;100.00
60244;BME280;46106;51.468;5.814;2023-02-28T00:13:02;102751.19;;;-0.37;100.00
60244;BME280;46106;51.468;5.814;2023-02-28T00:15:28;102739.53;;;-0.40;100.00
60244;BME280;46106;51.468;5.814;2023-02-28T00:17:53;102741.34;;;-0.42;100.00
60244;BME280;46106;51.468;5.814;2023-02-28T00:20:19;102747.59;;;-0.29;100.00
60244;BME280;46106;51.468;5.814;2023-02-28T00:22:47;102742.25;;;-0.43;100.00
60244;BME280;46106;51.468;5.814;2023-02-28T00:25:16;102742.25;;;-0.40;100.00
60244;BME280;46106;51.468;5.814;2023-02-28T00:27:42;102750.31;;;-0.43;100.00
60244;BME280;46106;51.468;5.814;2023-02-28T00:30:11;102750.31;;;-0.42;100.00
60244;BME280;46106;51.468;5.814;2023-02-28T00:32:38;102740.50;;;-0.57;100.00
60244;BME280;46106;51.468;5.814;2023-02-28T00:35:04;102754.81;;;-0.56;100.00
60244;BME280;46106;51.468;5.814;2023-02-28T00:37:30;102743.19;;;-0.67;100.00
60244;BME280;46106;51.468;5.814;2023-02-28T00:39:56;102758.44;;;-0.54;100.00
60244;BME280;46106;51.468;5.814;2023-02-28T00:42:22;102760.19;;;-0.54;100.00
60244;BME280;46106;51.468;5.814;2023-02-28T00:44:48;102758.44;;;-0.62;100.00
60244;BME280;46106;51.468;5.814;2023-02-28T00:47:13;102755.75;;;-0.66;100.00
60244;BME280;46106;51.468;5.814;2023-02-28T00:49:39;102739.63;;;-0.77;100.00
60244;BME280;46106;51.468;5.814;2023-02-28T00:52:05;102767.41;;;-0.86;100.00
60244;BME280;46106;51.468;5.814;2023-02-28T00:54:30;102771.91;;;-0.91;100.00
60244;BME280;46106;51.468;5.814;2023-02-28T00:56:56;102764.75;;;-0.97;100.00
60244;BME280;46106;51.468;5.814;2023-02-28T00:59:21;102766.53;;;-0.94;100.00
60244;BME280;46106;51.468;5.814;2023-02-28T01:01:46;102763.84;;;-1.08;100.00
60244;BME280;46106;51.468;5.814;2023-02-28T01:04:13;102764.72;;;-0.94;100.00
60244;BME280;46106;51.468;5.814;2023-02-28T01:06:39;102770.09;;;-0.87;100.00
60244;BME280;46106;51.468;5.814;2023-02-28T01:09:07;102775.47;;;-0.86;100.00
60244;BME280;46106;51.468;5.814;2023-02-28T01:11:33;102761.16;;;-0.96;100.00
60244;BME280;46106;51.468;5.814;2023-02-28T01:13:59;102787.16;;;-0.91;100.00
60244;BME280;46106;51.468;5.814;2023-02-28T01:16:25;102765.63;;;-1.21;100.00
60244;BME280;46106;51.468;5.814;2023-02-28T01:18:51;102774.56;;;-1.25;100.00
60244;BME280;46106;51.468;5.814;2023-02-28T01:21:18;102781.75;;;-1.25;100.00
60244;BME280;46106;51.468;5.814;2023-02-28T01:23:44;102766.50;;;-1.26;100.00
60244;BME280;46106;51.468;5.814;2023-02-28T01:26:18;102780.84;;;-1.20;100.00
60244;BME280;46106;51.468;5.814;2023-02-28T01:28:44;102776.38;;;-1.19;100.00
60244;BME280;46106;51.468;5.814;2023-02-28T01:31:10;102772.78;;;-1.11;100.00
60244;BME280;46106;51.468;5.814;2023-02-28T01:33:36;102776.38;;;-1.19;100.00
60244;BME280;46106;51.468;5.814;2023-02-28T01:36:09;102775.47;;;-1.17;100.00
60244;BME280;46106;51.468;5.814;2023-02-28T01:38:35;102781.75;;;-1.19;100.00
60244;BME280;46106;51.468;5.814;2023-02-28T01:41:01;102775.47;;;-1.29;100.00
60244;BME280;46106;51.468;5.814;2023-02-28T01:46:13;102771.00;;;-1.22;100.00
60244;BME280;46106;51.468;5.814;2023-02-28T01:48:44;102765.63;;;-1.18;100.00
60244;BME280;46106;51.468;5.814;2023-02-28T01:51:15;102764.72;;;-1.18;100.00
60244;BME280;46106;51.468;5.814;2023-02-28T01:53:45;102762.97;;;-1.13;100.00
60244;BME280;46106;51.468;5.814;2023-02-28T01:56:14;102753.97;;;-1.12;100.00
60244;BME280;46106;51.468;5.814;2023-02-28T01:58:50;102753.09;;;-1.08;100.00
60244;BME280;46106;51.468;5.814;2023-02-28T02:01:16;102749.50;;;-1.04;100.00
60244;BME280;46106;51.468;5.814;2023-02-28T02:03:53;102738.75;;;-1.01;100.00
60244;BME280;46106;51.468;5.814;2023-02-28T02:06:27;102746.81;;;-1.05;100.00
60244;BME280;46106;51.468;5.814;2023-02-28T02:08:54;102749.50;;;-1.08;100.00
60244;BME280;46106;51.468;5.814;2023-02-28T02:11:22;102750.41;;;-1.05;100.00
60244;BME280;46106;51.468;5.814;2023-02-28T02:14:42;102741.44;;;-1.10;100.00
60244;BME280;46106;51.468;5.814;2023-02-28T02:17:02;102739.66;;;-1.17;100.00
60244;BME280;46106;51.468;5.814;2023-02-28T02:28:22;102733.38;;;-1.22;100.00
60244;BME280;46106;51.468;5.814;2023-02-28T02:33:45;102735.16;;;-1.31;100.00
60244;BME280;46106;51.468;5.814;2023-02-28T02:36:21;102730.69;;;-1.41;100.00
60244;BME280;46106;51.468;5.814;2023-02-28T02:39:01;102736.94;;;-1.39;100.00
60244;BME280;46106;51.468;5.814;2023-02-28T02:41:39;102736.06;;;-1.44;100.00
60244;BME280;46106;51.468;5.814;2023-02-28T02:44:31;102723.50;;;-1.48;100.00
60244;BME280;46106;51.468;5.814;2023-02-28T02:47:10;102739.66;;;-1.37;100.00
60244;BME280;46106;51.468;5.814;2023-02-28T02:49:38;102725.28;;;-1.35;100.00
60244;BME280;46106;51.468;5.814;2023-02-28T02:52:07;102724.41;;;-1.40;100.00
60244;BME280;46106;51.468;5.814;2023-02-28T02:54:37;102729.75;;;-1.43;100.00
60244;BME280;46106;51.468;5.814;2023-02-28T02:57:11;102730.66;;;-1.56;100.00
60244;BME280;46106;51.468;5.814;2023-02-28T02:59:40;102741.41;;;-1.64;100.00
60244;BME280;46106;51.468;5.814;2023-02-28T03:02:08;102738.72;;;-1.53;100.00
60244;BME280;46106;51.468;5.814;2023-02-28T03:04:43;102740.53;;;-1.49;100.00
60244;BME280;46106;51.468;5.814;2023-02-28T03:07:10;102736.06;;;-1.39;100.00
60244;BME280;46106;51.468;5.814;2023-02-28T03:09:36;102737.81;;;-1.43;100.00
60244;BME280;46106;51.468;5.814;2023-02-28T03:12:02;102743.19;;;-1.44;100.00
60244;BME280;46106;51.468;5.814;2023-02-28T03:17:40;102742.31;;;-1.48;100.00
60244;BME280;46106;51.468;5.814;2023-02-28T03:20:35;102739.59;;;-1.51;100.00
60244;BME280;46106;51.468;5.814;2023-02-28T03:28:21;102745.00;;;-1.46;100.00
60244;BME280;46106;51.468;5.814;2023-02-28T03:31:00;102741.44;;;-1.27;100.00
60244;BME280;46106;51.468;5.814;2023-02-28T03:33:42;102735.16;;;-1.34;100.00
60244;BME280;46106;51.468;5.814;2023-02-28T03:36:18;102738.72;;;-1.35;100.00
60244;BME280;46106;51.468;5.814;2023-02-28T03:38:49;102742.31;;;-1.39;100.00
60244;BME280;46106;51.468;5.814;2023-02-28T03:41:25;102744.13;;;-1.39;100.00
60244;BME280;46106;51.468;5.814;2023-02-28T03:44:13;102743.22;;;-1.37;100.00
60244;BME280;46106;51.468;5.814;2023-02-28T03:46:48;102735.16;;;-1.35;100.00
60244;BME280;46106;51.468;5.814;2023-02-28T03:49:28;102737.84;;;-1.35;100.00
60244;BME280;46106;51.468;5.814;2023-02-28T03:51:59;102744.13;;;-1.39;100.00
60244;BME280;46106;51.468;5.814;2023-02-28T03:54:32;102732.47;;;-1.37;100.00
60244;BME280;46106;51.468;5.814;2023-02-28T03:59:47;102728.88;;;-1.26;100.00
60244;BME280;46106;51.468;5.814;2023-02-28T04:02:16;102736.97;;;-1.14;100.00
60244;BME280;46106;51.468;5.814;2023-02-28T04:04:41;102733.38;;;-1.22;100.00
60244;BME280;46106;51.468;5.814;2023-02-28T04:07:13;102738.75;;;-1.18;100.00
60244;BME280;46106;51.468;5.814;2023-02-28T04:09:39;102726.22;;;-1.20;100.00
60244;BME280;46106;51.468;5.814;2023-02-28T04:12:05;102729.78;;;-1.15;100.00
60244;BME280;46106;51.468;5.814;2023-02-28T04:14:31;102719.03;;;-1.14;100.00
60244;BME280;46106;51.468;5.814;2023-02-28T04:16:56;102725.34;;;-1.15;100.00
60244;BME280;46106;51.468;5.814;2023-02-28T04:19:22;102718.16;;;-1.14;100.00
60244;BME280;46106;51.468;5.814;2023-02-28T04:21:49;102724.41;;;-1.12;100.00
60244;BME280;46106;51.468;5.814;2023-02-28T04:24:21;102730.69;;;-1.04;100.00
60244;BME280;46106;51.468;5.814;2023-02-28T04:26:49;102724.41;;;-1.12;100.00
60244;BME280;46106;51.468;5.814;2023-02-28T04:29:32;102733.38;;;-1.08;100.00
60244;BME280;46106;51.468;5.814;2023-02-28T04:31:58;102737.88;;;-1.00;100.00
60244;BME280;46106;51.468;5.814;2023-02-28T04:34:29;102737.88;;;-0.98;100.00
60244;BME280;46106;51.468;5.814;2023-02-28T04:36:55;102729.81;;;-0.98;100.00
60244;BME280;46106;51.468;5.814;2023-02-28T04:39:23;102729.81;;;-1.00;100.00
60244;BME280;46106;51.468;5.814;2023-02-28T04:41:48;102734.25;;;-1.00;100.00
60244;BME280;46106;51.468;5.814;2023-02-28T04:44:14;102736.06;;;-1.08;100.00
60244;BME280;46106;51.468;5.814;2023-02-28T04:46:40;102739.66;;;-1.06;100.00
60244;BME280;46106;51.468;5.814;2023-02-28T04:49:06;102743.22;;;-1.15;100.00
60244;BME280;46106;51.468;5.814;2023-02-28T04:51:32;102740.53;;;-1.18;100.00
60244;BME280;46106;51.468;5.814;2023-02-28T04:53:57;102737.84;;;-1.17;100.00
60244;BME280;46106;51.468;5.814;2023-02-28T04:56:23;102744.16;;;-1.15;100.00
60244;BME280;46106;51.468;5.814;2023-02-28T04:58:49;102745.91;;;-1.11;100.00
60244;BME280;46106;51.468;5.814;2023-02-28T05:01:24;102754.00;;;-1.06;100.00
60244;BME280;46106;51.468;5.814;2023-02-28T05:03:51;102760.25;;;-0.93;100.00
60244;BME280;46106;51.468;5.814;2023-02-28T05:06:18;102748.63;;;-0.97;100.00
60244;BME280;46106;51.468;5.814;2023-02-28T05:08:44;102753.06;;;-0.99;100.00
60244;BME280;46106;51.468;5.814;2023-02-28T05:11:29;102754.00;;;-1.01;100.00
60244;BME280;46106;51.468;5.814;2023-02-28T05:14:00;102757.56;;;-1.12;100.00
60244;BME280;46106;51.468;5.814;2023-02-28T05:16:27;102745.00;;;-1.22;100.00
60244;BME280;46106;51.468;5.814;2023-02-28T05:18:52;102762.03;;;-1.12;100.00
60244;BME280;46106;51.468;5.814;2023-02-28T05:21:35;102766.53;;;-0.97;100.00
60244;BME280;46106;51.468;5.814;2023-02-28T05:24:11;102765.66;;;-0.88;100.00
60244;BME280;46106;51.468;5.814;2023-02-28T05:26:40;102768.31;;;-0.84;100.00
60244;BME280;46106;51.468;5.814;2023-02-28T05:29:05;102766.53;;;-0.85;100.00
60244;BME280;46106;51.468;5.814;2023-02-28T05:31:32;102768.31;;;-0.79;100.00
60244;BME280;46106;51.468;5.814;2023-02-28T05:33:57;102770.09;;;-0.69;100.00
60244;BME280;46106;51.468;5.814;2023-02-28T05:36:24;102767.41;;;-0.80;100.00
60244;BME280;46106;51.468;5.814;2023-02-28T05:38:50;102753.09;;;-0.86;100.00
60244;BME280;46106;51.468;5.814;2023-02-28T05:41:18;102770.09;;;-0.84;100.00
60244;BME280;46106;51.468;5.814;2023-02-28T05:43:44;102773.69;;;-0.79;100.00
60244;BME280;46106;51.468;5.814;2023-02-28T05:46:11;102778.16;;;-0.66;100.00
60244;BME280;46106;51.468;5.814;2023-02-28T05:48:38;102773.69;;;-0.62;100.00
60244;BME280;46106;51.468;5.814;2023-02-28T05:51:04;102762.94;;;-0.79;100.00
60244;BME280;46106;51.468;5.814;2023-02-28T05:53:31;102771.91;;;-0.88;100.00
60244;BME280;46106;51.468;5.814;2023-02-28T05:55:56;102768.31;;;-0.78;100.00
60244;BME280;46106;51.468;5.814;2023-02-28T05:58:22;102777.28;;;-0.86;100.00
60244;BME280;46106;51.468;5.814;2023-02-28T06:00:48;102771.91;;;-0.99;100.00
60244;BME280;46106;51.468;5.814;2023-02-28T06:03:14;102778.19;;;-1.03;100.00
60244;BME280;46106;51.468;5.814;2023-02-28T06:05:40;102781.75;;;-1.02;100.00
60244;BME280;46106;51.468;5.814;2023-02-28T06:08:05;102774.59;;;-1.20;100.00
60244;BME280;46106;51.468;5.814;2023-02-28T06:10:33;102782.63;;;-1.22;100.00
60244;BME280;46106;51.468;5.814;2023-02-28T06:13:00;102781.75;;;-1.24;100.00
60244;BME280;46106;51.468;5.814;2023-02-28T06:15:28;102787.13;;;-1.21;100.00
60244;BME280;46106;51.468;5.814;2023-02-28T06:17:53;102780.84;;;-1.27;100.00
60244;BME280;46106;51.468;5.814;2023-02-28T06:20:21;102767.41;;;-1.31;100.00
60244;BME280;46106;51.468;5.814;2023-02-28T06:22:46;102782.66;;;-1.17;100.00
60244;BME280;46106;51.468;5.814;2023-02-28T06:25:12;102783.53;;;-1.20;100.00
60244;BME280;46106;51.468;5.814;2023-02-28T06:27:37;102788.00;;;-1.26;100.00
60244;BME280;46106;51.468;5.814;2023-02-28T06:30:03;102788.00;;;-1.23;100.00
60244;BME280;46106;51.468;5.814;2023-02-28T06:32:29;102790.72;;;-1.13;100.00
60244;BME280;46106;51.468;5.814;2023-02-28T06:34:54;102786.19;;;-1.38;100.00
60244;BME280;46106;51.468;5.814;2023-02-28T06:37:22;102791.53;;;-1.46;100.00
60244;BME280;46106;51.468;5.814;2023-02-28T06:39:51;102788.84;;;-1.46;100.00
60244;BME280;46106;51.468;5.814;2023-02-28T06:42:16;102789.78;;;-1.42;100.00
60244;BME280;46106;51.468;5.814;2023-02-28T06:44:42;102768.25;;;-1.59;100.00
60244;BME280;46106;51.468;5.814;2023-02-28T06:47:09;102803.19;;;-1.49;100.00
60244;BME280;46106;51.468;5.814;2023-02-28T06:49:35;102805.00;;;-1.49;100.00
60244;BME280;46106;51.468;5.814;2023-02-28T06:52:01;102805.88;;;-1.50;100.00
60244;BME280;46106;51.468;5.814;2023-02-28T06:54:26;102792.47;;;-1.45;100.00
60244;BME280;46106;51.468;5.814;2023-02-28T06:56:52;102806.81;;;-1.36;100.00
60244;BME280;46106;51.468;5.814;2023-02-28T06:59:20;102815.75;;;-1.34;100.00
60244;BME280;46106;51.468;5.814;2023-02-28T07:01:45;102816.66;;;-1.30;100.00
60244;BME280;46106;51.468;5.814;2023-02-28T07:04:11;102816.66;;;-1.28;100.00
60244;BME280;46106;51.468;5.814;2023-02-28T07:06:38;102826.56;;;-1.21;100.00
60244;BME280;46106;51.468;5.814;2023-02-28T07:09:04;102822.06;;;-1.12;100.00
60244;BME280;46106;51.468;5.814;2023-02-28T07:11:30;102812.22;;;-0.96;100.00
60244;BME280;46106;51.468;5.814;2023-02-28T07:13:56;102823.88;;;-0.66;100.00
60244;BME280;46106;51.468;5.814;2023-02-28T07:16:24;102823.88;;;-0.52;100.00
60244;BME280;46106;51.468;5.814;2023-02-28T07:18:52;102825.66;;;-0.46;100.00
60244;BME280;46106;51.468;5.814;2023-02-28T07:21:18;102833.72;;;-0.40;100.00
60244;BME280;46106;51.468;5.814;2023-02-28T07:23:43;102831.00;;;-0.25;100.00
60244;BME280;46106;51.468;5.814;2023-02-28T07:26:14;102830.09;;;-0.11;100.00
60244;BME280;46106;51.468;5.814;2023-02-28T07:28:45;102833.69;;;-0.12;100.00
60244;BME280;46106;51.468;5.814;2023-02-28T07:31:11;102830.97;;;0.00;100.00
60244;BME280;46106;51.468;5.814;2023-02-28T07:33:37;102830.91;;;0.06;100.00
60244;BME280;46106;51.468;5.814;2023-02-28T07:36:05;102832.72;;;0.16;100.00
60244;BME280;46106;51.468;5.814;2023-02-28T07:38:33;102834.38;;;0.39;100.00
60244;BME280;46106;51.468;5.814;2023-02-28T07:40:59;102832.56;;;0.46;100.00
60244;BME280;46106;51.468;5.814;2023-02-28T07:43:26;102844.13;;;0.68;100.00
60244;BME280;46106;51.468;5.814;2023-02-28T07:45:51;102843.97;;;0.96;100.00
60244;BME280;46106;51.468;5.814;2023-02-28T07:48:17;102840.09;;;1.32;100.00
60244;BME280;46106;51.468;5.814;2023-02-28T07:50:42;102839.25;;;1.25;100.00
60244;BME280;46106;51.468;5.814;2023-02-28T07:53:08;102841.97;;;1.19;100.00
60244;BME280;46106;51.468;5.814;2023-02-28T07:55:33;102843.69;;;1.29;100.00
60244;BME280;46106;51.468;5.814;2023-02-28T07:57:59;102842.63;;;1.47;100.00
60244;BME280;46106;51.468;5.814;2023-02-28T08:00:25;102855.41;;;1.30;100.00
60244;BME280;46106;51.468;5.814;2023-02-28T08:02:50;102853.81;;;0.98;100.00
60244;BME280;46106;51.468;5.814;2023-02-28T08:05:16;102854.47;;;1.31;100.00
60244;BME280;46106;51.468;5.814;2023-02-28T08:07:42;102859.94;;;1.25;100.00
60244;BME280;46106;51.468;5.814;2023-02-28T08:10:08;102860.69;;;1.39;100.00
60244;BME280;46106;51.468;5.814;2023-02-28T08:12:35;102839.94;;;1.47;100.00
60244;BME280;46106;51.468;5.814;2023-02-28T08:15:00;102856.00;;;1.63;100.00
60244;BME280;46106;51.468;5.814;2023-02-28T08:17:26;102850.03;;;2.18;100.00
60244;BME280;46106;51.468;5.814;2023-02-28T08:19:52;102836.41;;;2.26;100.00
60244;BME280;46106;51.468;5.814;2023-02-28T08:22:17;102856.41;;;2.10;100.00
60244;BME280;46106;51.468;5.814;2023-02-28T08:24:42;102841.41;;;2.58;100.00
60244;BME280;46106;51.468;5.814;2023-02-28T08:27:09;102854.81;;;2.68;100.00
60244;BME280;46106;51.468;5.814;2023-02-28T08:29:37;102842.03;;;2.79;100.00
60244;BME280;46106;51.468;5.814;2023-02-28T08:32:03;102847.97;;;3.03;100.00
60244;BME280;46106;51.468;5.814;2023-02-28T08:34:28;102851.28;;;3.23;100.00
60244;BME280;46106;51.468;5.814;2023-02-28T08:36:54;102850.38;;;3.21;95.74
60244;BME280;46106;51.468;5.814;2023-02-28T08:39:19;102851.34;;;3.20;86.96
60244;BME280;46106;51.468;5.814;2023-02-28T08:41:45;102857.41;;;3.35;83.76
60244;BME280;46106;51.468;5.814;2023-02-28T08:44:10;102842.88;;;3.40;80.29
60244;BME280;46106;51.468;5.814;2023-02-28T08:46:36;102841.81;;;3.49;83.72
60244;BME280;46106;51.468;5.814;2023-02-28T08:49:01;102835.28;;;3.62;79.39
60244;BME280;46106;51.468;5.814;2023-02-28T08:51:28;102850.63;;;3.62;77.35
60244;BME280;46106;51.468;5.814;2023-02-28T08:53:58;102850.03;;;3.94;75.16
60244;BME280;46106;51.468;5.814;2023-02-28T08:56:25;102848.22;;;3.95;70.70
60244;BME280;46106;51.468;5.814;2023-02-28T08:58:51;102846.66;;;4.28;70.90
60244;BME280;46106;51.468;5.814;2023-02-28T09:01:26;102843.53;;;4.03;67.24
60244;BME280;46106;51.468;5.814;2023-02-28T09:03:53;102842.00;;;4.35;68.53
60244;BME280;46106;51.468;5.814;2023-02-28T09:06:20;102850.22;;;4.74;65.26
60244;BME280;46106;51.468;5.814;2023-02-28T09:08:46;102841.75;;;4.46;64.20
60244;BME280;46106;51.468;5.814;2023-02-28T09:11:12;102850.69;;;4.91;64.18
60244;BME280;46106;51.468;5.814;2023-02-28T09:13:38;102853.66;;;5.20;63.70
60244;BME280;46106;51.468;5.814;2023-02-28T09:16:06;102846.78;;;5.05;63.08
60244;BME280;46106;51.468;5.814;2023-02-28T09:18:34;102844.00;;;5.44;59.82
60244;BME280;46106;51.468;5.814;2023-02-28T09:21:03;102844.59;;;5.57;59.36
60244;BME280;46106;51.468;5.814;2023-02-28T09:23:29;102842.31;;;5.40;55.85
60244;BME280;46106;51.468;5.814;2023-02-28T09:25:54;102840.34;;;5.46;56.06
60244;BME280;46106;51.468;5.814;2023-02-28T09:28:20;102842.44;;;5.69;55.57
60244;BME280;46106;51.468;5.814;2023-02-28T09:30:48;102845.47;;;6.24;54.93
60244;BME280;46106;51.468;5.814;2023-02-28T09:33:14;102830.66;;;6.66;52.16
60244;BME280;46106;51.468;5.814;2023-02-28T09:35:40;102836.25;;;5.99;51.51
60244;BME280;46106;51.468;5.814;2023-02-28T09:38:06;102843.63;;;6.27;49.75
60244;BME280;46106;51.468;5.814;2023-02-28T09:40:35;102834.41;;;5.99;51.20
60244;BME280;46106;51.468;5.814;2023-02-28T09:43:02;102828.16;;;5.97;48.98
60244;BME280;46106;51.468;5.814;2023-02-28T09:45:36;102823.72;;;5.57;51.65
60244;BME280;46106;51.468;5.814;2023-02-28T09:48:12;102826.38;;;6.57;48.46
60244;BME280;46106;51.468;5.814;2023-02-28T09:50:50;102841.50;;;6.05;48.24
60244;BME280;46106;51.468;5.814;2023-02-28T09:56:03;102826.81;;;5.78;49.76
60244;BME280;46106;51.468;5.814;2023-02-28T09:58:47;102834.78;;;5.85;47.44
60244;BME280;46106;51.468;5.814;2023-02-28T10:01:41;102833.03;;;5.83;48.34
60244;BME280;46106;51.468;5.814;2023-02-28T10:06:51;102820.63;;;6.38;48.04
60244;BME280;46106;51.468;5.814;2023-02-28T10:09:22;102832.88;;;6.53;44.79
60244;BME280;46106;51.468;5.814;2023-02-28T10:11:54;102819.44;;;6.47;48.30
60244;BME280;46106;51.468;5.814;2023-02-28T10:14:23;102828.78;;;6.96;45.80
60244;BME280;46106;51.468;5.814;2023-02-28T10:16:56;102826.28;;;6.60;44.21
60244;BME280;46106;51.468;5.814;2023-02-28T10:22:38;102820.50;;;6.12;46.87
60244;BME280;46106;51.468;5.814;2023-02-28T10:25:28;102815.25;;;6.35;47.89
60244;BME280;46106;51.468;5.814;2023-02-28T10:28:15;102828.66;;;6.12;45.99
60244;BME280;46106;51.468;5.814;2023-02-28T10:30:51;102831.59;;;6.35;43.91
60244;BME280;46106;51.468;5.814;2023-02-28T10:33:34;102812.34;;;6.12;43.70
60244;BME280;46106;51.468;5.814;2023-02-28T10:36:01;102819.44;;;6.47;46.05
60244;BME280;46106;51.468;5.814;2023-02-28T10:38:33;102819.06;;;6.30;45.07
60244;BME280;46106;51.468;5.814;2023-02-28T10:41:07;102814.72;;;6.22;45.66
60244;BME280;46106;51.468;5.814;2023-02-28T10:43:33;102814.94;;;6.15;44.39
60244;BME280;46106;51.468;5.814;2023-02-28T10:48:44;102816.22;;;6.01;46.47
60244;BME280;46106;51.468;5.814;2023-02-28T10:51:12;102814.25;;;6.06;45.39
60244;BME280;46106;51.468;5.814;2023-02-28T10:53:58;102809.44;;;6.48;45.17
60244;BME280;46106;51.468;5.814;2023-02-28T10:56:28;102809.25;;;6.24;46.38
60244;BME280;46106;51.468;5.814;2023-02-28T11:04:23;102815.38;;;6.31;45.14
60244;BME280;46106;51.468;5.814;2023-02-28T11:07:17;102786.72;;;6.19;47.35
60244;BME280;46106;51.468;5.814;2023-02-28T11:09:47;102806.31;;;6.32;48.17
60244;BME280;46106;51.468;5.814;2023-02-28T11:12:24;102805.47;;;6.59;46.37
60244;BME280;46106;51.468;5.814;2023-02-28T11:14:54;102793.81;;;6.24;46.36
60244;BME280;46106;51.468;5.814;2023-02-28T11:17:27;102780.16;;;5.62;46.61
60244;BME280;46106;51.468;5.814;2023-02-28T11:19:57;102785.66;;;6.24;47.51
60244;BME280;46106;51.468;5.814;2023-02-28T11:22:28;102796.31;;;6.32;48.17
60244;BME280;46106;51.468;5.814;2023-02-28T11:24:57;102785.97;;;6.14;47.00
60244;BME280;46106;51.468;5.814;2023-02-28T11:27:44;102785.03;;;6.15;47.42
60244;BME280;46106;51.468;5.814;2023-02-28T11:30:34;102783.00;;;6.21;48.92
60244;BME280;46106;51.468;5.814;2023-02-28T11:33:18;102783.44;;;6.37;48.50
60244;BME280;46106;51.468;5.814;2023-02-28T11:35:48;102779.97;;;6.02;46.87
60244;BME280;46106;51.468;5.814;2023-02-28T11:38:15;102784.06;;;5.51;47.59
60244;BME280;46106;51.468;5.814;2023-02-28T11:46:20;102778.91;;;6.06;48.56
60244;BME280;46106;51.468;5.814;2023-02-28T11:51:53;102778.50;;;5.56;49.81
60244;BME280;46106;51.468;5.814;2023-02-28T11:54:47;102779.78;;;5.76;49.27
60244;BME280;46106;51.468;5.814;2023-02-28T12:05:35;102760.44;;;5.53;50.06
60244;BME280;46106;51.468;5.814;2023-02-28T12:08:07;102763.47;;;5.43;50.05
60244;BME280;46106;51.468;5.814;2023-02-28T12:13:38;102755.53;;;5.68;48.68
60244;BME280;46106;51.468;5.814;2023-02-28T12:19:43;102753.63;;;5.37;49.36
60244;BME280;46106;51.468;5.814;2023-02-28T12:22:31;102746.34;;;5.39;49.28
60244;BME280;46106;51.468;5.814;2023-02-28T12:25:21;102731.25;;;5.27;50.31
60244;BME280;46106;51.468;5.814;2023-02-28T12:27:49;102738.72;;;5.19;49.53
60244;BME280;46106;51.468;5.814;2023-02-28T12:32:47;102729.81;;;5.14;49.13
60244;BME280;46106;51.468;5.814;2023-02-28T12:35:17;102725.25;;;5.49;49.46
60244;BME280;46106;51.468;5.814;2023-02-28T12:37:58;102727.06;;;5.48;49.39
60244;BME280;46106;51.468;5.814;2023-02-28T12:40:54;102717.50;;;5.35;48.95
60244;BME280;46106;51.468;5.814;2023-02-28T12:43:18;102718.03;;;5.48;49.08
60244;BME280;46106;51.468;5.814;2023-02-28T12:45:46;102722.97;;;5.66;50.32
60244;BME280;46106;51.468;5.814;2023-02-28T12:48:19;102716.75;;;5.61;49.60
60244;BME280;46106;51.468;5.814;2023-02-28T12:50:46;102702.78;;;5.42;48.86
60244;BME280;46106;51.468;5.814;2023-02-28T12:56:03;102708.78;;;5.55;49.94
60244;BME280;46106;51.468;5.814;2023-02-28T12:58:39;102717.53;;;5.33;49.09
60244;BME280;46106;51.468;5.814;2023-02-28T13:01:33;102707.97;;;5.19;51.52
60244;BME280;46106;51.468;5.814;2023-02-28T13:09:56;102691.84;;;5.45;50.79
60244;BME280;46106;51.468;5.814;2023-02-28T13:12:23;102697.94;;;5.53;51.04
60244;BME280;46106;51.468;5.814;2023-02-28T13:14:50;102703.56;;;5.47;51.15
60244;BME280;46106;51.468;5.814;2023-02-28T13:17:20;102692.97;;;5.38;50.15
60244;BME280;46106;51.468;5.814;2023-02-28T13:19:57;102694.06;;;5.62;50.48
60244;BME280;46106;51.468;5.814;2023-02-28T13:22:47;102682.31;;;5.62;51.69
60244;BME280;46106;51.468;5.814;2023-02-28T13:27:55;102677.63;;;5.67;51.78
60244;BME280;46106;51.468;5.814;2023-02-28T13:33:34;102675.00;;;5.64;51.20
60244;BME280;46106;51.468;5.814;2023-02-28T13:36:08;102684.16;;;5.61;50.10
60244;BME280;46106;51.468;5.814;2023-02-28T13:44:12;102674.38;;;5.54;49.75
60244;BME280;46106;51.468;5.814;2023-02-28T13:52:33;102665.94;;;5.65;51.75
60244;BME280;46106;51.468;5.814;2023-02-28T13:55:21;102674.13;;;5.63;49.63
60244;BME280;46106;51.468;5.814;2023-02-28T13:58:20;102666.16;;;5.57;50.13
60244;BME280;46106;51.468;5.814;2023-02-28T14:07:05;102667.78;;;5.64;51.17
60244;BME280;46106;51.468;5.814;2023-02-28T14:09:35;102661.00;;;5.79;51.38
60244;BME280;46106;51.468;5.814;2023-02-28T14:18:14;102659.44;;;5.38;49.69
60244;BME280;46106;51.468;5.814;2023-02-28T14:20:42;102656.41;;;5.50;50.89
60244;BME280;46106;51.468;5.814;2023-02-28T14:23:33;102653.72;;;5.48;51.39
60244;BME280;46106;51.468;5.814;2023-02-28T14:32:02;102653.44;;;5.59;51.27
60244;BME280;46106;51.468;5.814;2023-02-28T14:37:29;102655.81;;;5.70;51.05
60244;BME280;46106;51.468;5.814;2023-02-28T14:39:56;102648.50;;;5.72;51.06
60244;BME280;46106;51.468;5.814;2023-02-28T14:42:35;102660.06;;;5.79;53.57
60244;BME280;46106;51.468;5.814;2023-02-28T14:45:01;102636.56;;;5.78;53.10
60244;BME280;46106;51.468;5.814;2023-02-28T14:47:30;102645.56;;;5.48;50.72
60244;BME280;46106;51.468;5.814;2023-02-28T14:49:58;102643.41;;;5.61;51.73
60244;BME280;46106;51.468;5.814;2023-02-28T14:52:27;102646.06;;;5.63;51.07
60244;BME280;46106;51.468;5.814;2023-02-28T14:54:57;102633.66;;;5.52;52.26
60244;BME280;46106;51.468;5.814;2023-02-28T14:57:29;102633.75;;;5.51;51.93